Time;durP1;ratioP1;P1;durP2;ratioP2;P2;SDS_P1;SDS_P2;PMS_P1;PMS_P2;Temp;Humidity;BMP_temperature;BMP_pressure;BME280_temperature;BME280_humidity;BME280_pressure;Samples;Min_cycle;Max_cycle;Signal;HPM_P1;HPM_P2
2022/12/25 00:00:53;;;;;;;14.57;4.77;;;10.90;99.90;;;;;;6089172;23;21164;-83
2022/12/25 00:12:14;;;;;;;9.00;4.87;;;10.90;99.90;;;;;;6094264;23;21677;-84
2022/12/25 00:20:01;;;;;;;7.87;4.63;;;10.90;99.90;;;;;;6128966;23;20477;-86
2022/12/25 00:25:35;;;;;;;13.10;5.13;;;10.90;99.90;;;;;;6108706;23;20433;-85
2022/12/25 00:36:26;;;;;;;10.43;4.80;;;11.00;99.90;;;;;;6098479;23;20490;-83
2022/12/25 00:39:46;;;;;;;;;;;;;;;;;;;;;
2022/12/25 00:56:19;;;;;;;9.27;3.70;;;11.10;99.90;;;;;;6156258;23;21009;-84
2022/12/25 00:59:00;;;;;;;12.50;4.53;;;11.10;99.90;;;;;;6156670;23;20441;-85
2022/12/25 01:04:22;;;;;;;6.57;4.60;;;11.00;99.90;;;;;;6093931;23;20495;-83
2022/12/25 01:07:07;;;;;;;10.73;3.70;;;11.10;99.90;;;;;;6092063;23;20424;-85
2022/12/25 01:15:22;;;;;;;6.17;4.00;;;10.90;99.90;;;;;;6111875;23;20427;-85
2022/12/25 01:18:08;;;;;;;6.27;3.70;;;10.90;99.90;;;;;;6089105;23;20439;-84
2022/12/25 01:20:56;;;;;;;;;;;;;;;;;;;;;
2022/12/25 01:23:36;;;;;;;6.00;3.67;;;11.00;99.90;;;;;;6066499;23;20412;-85
2022/12/25 01:27:10;;;;;;;7.57;3.30;;;11.00;99.90;;;;;;6064655;23;20606;-84
2022/12/25 01:30:46;;;;;;;7.60;3.60;;;11.00;99.90;;;;;;6058269;23;20477;-82
2022/12/25 01:33:58;;;;;;;;;;;;;;;;;;;;;
2022/12/25 01:36:35;;;;;;;9.73;3.70;;;10.90;99.90;;;;;;6065407;23;20448;-83
2022/12/25 01:39:15;;;;;;;8.73;4.20;;;10.90;99.90;;;;;;6042974;23;20495;-84
2022/12/25 01:42:02;;;;;;;4.93;3.20;;;11.10;99.90;;;;;;6066944;23;20444;-83
2022/12/25 01:45:16;;;;;;;6.17;3.40;;;11.10;99.90;;;;;;6068761;23;20496;-84
2022/12/25 01:48:55;;;;;;;9.87;4.17;;;11.00;99.90;;;;;;6082228;23;20441;-86
2022/12/25 01:51:54;;;;;;;8.83;3.93;;;11.00;99.90;;;;;;6067751;23;20436;-84
2022/12/25 01:54:42;;;;;;;10.23;3.53;;;11.10;99.90;;;;;;6065229;23;20404;-85
2022/12/25 01:57:49;;;;;;;7.90;3.30;;;11.20;99.90;;;;;;6064491;23;20486;-84
2022/12/25 02:00:53;;;;;;;6.30;3.10;;;11.20;99.90;;;;;;6064625;23;20448;-83
2022/12/25 02:03:41;;;;;;;9.97;3.10;;;11.10;99.90;;;;;;6066637;23;20871;-83
2022/12/25 02:06:36;;;;;;;7.60;3.80;;;11.20;99.90;;;;;;6065977;23;20421;-84
2022/12/25 02:09:22;;;;;;;4.90;2.67;;;11.30;99.90;;;;;;6065833;23;20502;-84
2022/12/25 02:12:09;;;;;;;6.60;2.97;;;11.30;99.90;;;;;;6066077;23;20437;-82
2022/12/25 02:15:18;;;;;;;3.83;3.10;;;11.30;99.90;;;;;;6078405;23;20409;-83
2022/12/25 02:18:41;;;;;;;6.80;3.63;;;11.30;99.90;;;;;;6067805;23;20492;-83
2022/12/25 02:21:50;;;;;;;9.73;3.80;;;11.20;99.90;;;;;;6016831;23;20508;-82
2022/12/25 02:25:08;;;;;;;9.57;4.50;;;11.20;99.90;;;;;;6076468;23;20399;-84
2022/12/25 02:28:07;;;;;;;6.07;2.50;;;11.30;99.90;;;;;;5973530;23;20453;-85
2022/12/25 02:31:21;;;;;;;6.53;3.63;;;11.30;99.90;;;;;;6067274;23;20402;-84
2022/12/25 02:34:25;;;;;;;6.17;4.07;;;11.20;99.90;;;;;;6067261;23;20417;-85
2022/12/25 02:37:11;;;;;;;5.10;3.10;;;11.10;99.90;;;;;;6065944;23;20409;-84
2022/12/25 02:40:13;;;;;;;5.50;3.20;;;11.20;99.90;;;;;;6066140;23;20745;-86
2022/12/25 03:08:03;;;;;;;6.67;3.00;;;11.50;99.90;;;;;;6065097;23;20449;-85
2022/12/25 03:13:33;;;;;;;5.30;2.80;;;11.30;99.90;;;;;;6065989;23;20421;-84
2022/12/25 03:31:10;;;;;;;10.17;3.27;;;11.50;99.90;;;;;;6065012;23;20477;-84
2022/12/25 03:36:27;;;;;;;5.93;2.50;;;11.50;99.90;;;;;;6065217;23;20417;-84
2022/12/25 04:36:37;;;;;;;8.60;3.30;;;11.50;99.90;;;;;;6076599;23;20417;-81
2022/12/25 04:39:24;;;;;;;7.63;3.60;;;11.60;99.90;;;;;;5965163;24;20404;-85
2022/12/25 04:42:23;;;;;;;6.30;3.20;;;11.60;99.90;;;;;;5987549;23;20439;-81
2022/12/25 04:45:19;;;;;;;7.17;3.63;;;11.60;99.90;;;;;;5987687;24;20372;-83
2022/12/25 04:48:23;;;;;;;6.53;3.13;;;11.60;99.90;;;;;;5987255;23;20494;-83
2022/12/25 04:53:58;;;;;;;4.27;2.93;;;11.50;99.90;;;;;;6091977;23;20539;-84
2022/12/25 04:57:03;;;;;;;7.20;2.90;;;11.60;99.90;;;;;;6098400;23;20436;-82
2022/12/25 05:00:07;;;;;;;14.40;3.03;;;11.60;99.90;;;;;;6103075;23;20421;-83
2022/12/25 05:06:55;;;;;;;6.17;2.53;;;11.60;99.90;;;;;;5921437;24;20430;-83
2022/12/25 05:09:40;;;;;;;7.10;2.43;;;11.50;99.90;;;;;;5884018;24;20508;-85
2022/12/25 05:15:35;;;;;;;8.97;3.20;;;11.40;99.90;;;;;;5922416;24;20428;-86
2022/12/25 05:21:37;;;;;;;4.53;2.20;;;11.40;99.90;;;;;;5906618;24;20464;-85
2022/12/25 05:24:35;;;;;;;5.80;2.70;;;11.20;99.90;;;;;;5965504;23;20851;-84
2022/12/25 05:27:40;;;;;;;6.20;2.70;;;11.40;99.90;;;;;;6040652;23;20409;-83
2022/12/25 05:30:28;;;;;;;6.37;3.40;;;11.40;99.90;;;;;;6037904;23;20460;-84
2022/12/25 05:33:36;;;;;;;6.83;2.43;;;11.40;99.90;;;;;;6055485;23;20391;-85
2022/12/25 05:36:23;;;;;;;4.67;2.00;;;11.50;99.90;;;;;;6117606;23;20408;-82
2022/12/25 05:39:00;;;;;;;3.10;2.27;;;11.40;99.90;;;;;;6123246;23;20440;-84
2022/12/25 05:41:43;;;;;;;3.20;2.17;;;11.50;99.90;;;;;;6147538;23;20445;-84
2022/12/25 05:44:36;;;;;;;2.40;2.20;;;11.40;99.90;;;;;;6115933;23;20515;-83
2022/12/25 05:47:21;;;;;;;5.07;2.43;;;11.50;99.90;;;;;;6124333;23;20526;-84
2022/12/25 05:50:23;;;;;;;6.27;2.27;;;11.50;99.90;;;;;;6132025;23;20546;-82
2022/12/25 05:53:18;;;;;;;5.50;2.40;;;11.40;99.90;;;;;;6094525;23;20529;-86
2022/12/25 05:56:02;;;;;;;5.10;3.20;;;11.50;99.90;;;;;;6085449;23;20471;-84
2022/12/25 05:59:00;;;;;;;4.73;2.27;;;11.50;99.90;;;;;;6093459;23;20434;-85
2022/12/25 06:01:33;;;;;;;7.33;2.40;;;11.40;99.90;;;;;;6092967;23;20459;-84
2022/12/25 06:04:07;;;;;;;4.40;2.10;;;11.50;99.90;;;;;;6174209;23;20446;-87
2022/12/25 06:10:18;;;;;;;5.10;2.00;;;11.40;99.90;;;;;;6177714;23;20854;-88
2022/12/25 06:13:28;;;;;;;3.30;2.47;;;11.30;99.90;;;;;;6145980;23;20459;-86
2022/12/25 06:16:42;;;;;;;3.30;2.13;;;11.40;99.90;;;;;;6147548;23;20447;-85
2022/12/25 06:19:43;;;;;;;7.83;2.23;;;11.60;99.90;;;;;;6146580;23;20758;-84
2022/12/25 06:22:30;;;;;;;5.50;3.00;;;11.70;99.90;;;;;;6138227;23;20456;-84
2022/12/25 06:25:14;;;;;;;5.43;2.80;;;11.60;99.90;;;;;;6126406;23;20400;-84
2022/12/25 06:27:47;;;;;;;5.07;2.70;;;11.60;99.90;;;;;;6127818;23;20427;-84
2022/12/25 06:30:27;;;;;;;6.30;2.10;;;11.80;99.90;;;;;;6126040;23;20444;-84
2022/12/25 06:33:23;;;;;;;7.63;2.40;;;11.90;99.90;;;;;;6127260;23;20693;-84
2022/12/25 06:36:21;;;;;;;4.50;2.37;;;11.70;99.90;;;;;;6082101;23;20416;-84
2022/12/25 06:39:13;;;;;;;6.43;2.53;;;11.60;99.90;;;;;;6094448;23;20424;-84
2022/12/25 06:41:44;;;;;;;5.63;2.17;;;11.70;99.90;;;;;;6127099;23;20450;-84
2022/12/25 06:50:45;;;;;;;;;;;;;;;;;;;;;
2022/12/25 06:53:44;;;;;;;4.80;2.30;;;11.40;99.90;;;;;;6135904;23;20467;-86
2022/12/25 06:56:52;;;;;;;4.90;2.50;;;11.30;99.90;;;;;;6117510;23;20447;-84
2022/12/25 06:59:46;;;;;;;8.50;2.53;;;11.20;99.90;;;;;;6150688;23;20404;-86
2022/12/25 07:05:12;;;;;;;5.50;1.93;;;11.50;99.90;;;;;;6133731;23;20458;-84
2022/12/25 07:13:56;;;;;;;7.83;2.43;;;11.70;99.90;;;;;;6133383;23;20251;-86
2022/12/25 07:16:55;;;;;;;7.60;3.03;;;11.70;99.90;;;;;;6091541;23;20453;-85
2022/12/25 07:19:56;;;;;;;4.10;2.00;;;11.50;99.90;;;;;;6108364;23;20422;-83
2022/12/25 07:23:11;;;;;;;8.77;2.63;;;11.40;99.90;;;;;;6103628;23;20435;-86
2022/12/25 07:26:56;;;;;;;6.30;2.83;;;11.50;99.90;;;;;;6080225;23;20408;-84
2022/12/25 07:29:46;;;;;;;3.70;2.47;;;11.60;99.90;;;;;;6113843;23;20438;-82
2022/12/25 07:32:43;;;;;;;;;;;;;;;;;;;;;
2022/12/25 07:36:27;;;;;;;5.80;3.13;;;11.40;99.90;;;;;;6135246;23;20399;-84
2022/12/25 07:39:20;;;;;;;4.63;2.60;;;11.60;99.90;;;;;;6100582;23;20411;-87
2022/12/25 07:42:52;;;;;;;7.07;2.60;;;11.40;99.90;;;;;;6126119;23;20407;-88
2022/12/25 07:46:06;;;;;;;7.60;2.90;;;11.30;99.90;;;;;;5998966;24;20397;-87
2022/12/25 07:49:06;;;;;;;5.03;2.93;;;11.40;99.90;;;;;;5989160;24;20473;-87
2022/12/25 07:51:54;;;;;;;4.60;2.10;;;11.30;99.90;;;;;;5995195;24;20436;-84
2022/12/25 07:54:58;;;;;;;4.83;3.90;;;11.30;99.90;;;;;;5994813;24;20870;-84
2022/12/25 07:57:45;;;;;;;4.43;2.70;;;11.70;99.90;;;;;;5991754;24;20416;-85
2022/12/25 08:00:28;;;;;;;7.60;2.90;;;11.50;99.90;;;;;;5991753;24;20446;-86
2022/12/25 08:03:40;;;;;;;7.07;2.77;;;11.50;99.90;;;;;;5990334;23;20511;-83
2022/12/25 08:07:01;;;;;;;9.13;3.07;;;11.60;99.90;;;;;;5987374;24;20444;-84
2022/12/25 08:18:17;;;;;;;6.80;3.30;;;11.60;99.90;;;;;;6124623;23;20463;-85
2022/12/25 08:23:45;;;;;;;6.30;2.70;;;11.60;99.90;;;;;;6124496;23;20455;-86
2022/12/25 08:37:05;;;;;;;5.90;3.80;;;11.50;99.90;;;;;;6120270;23;20466;-86
2022/12/25 08:39:48;;;;;;;5.27;2.93;;;11.20;99.90;;;;;;6097435;23;20400;-84
2022/12/25 08:42:41;;;;;;;2.77;2.50;;;11.40;99.90;;;;;;6114465;23;20464;-84
2022/12/25 08:45:17;;;;;;;5.93;3.50;;;11.50;99.90;;;;;;6119398;23;20422;-85
2022/12/25 08:51:25;;;;;;;5.47;3.13;;;11.40;99.90;;;;;;6106580;23;20484;-85
2022/12/25 08:54:12;;;;;;;4.70;3.23;;;11.40;99.90;;;;;;6096646;23;20405;-82
2022/12/25 08:57:36;;;;;;;6.87;3.40;;;11.50;99.90;;;;;;6096027;23;20470;-83
2022/12/25 09:00:35;;;;;;;;;;;;;;;;;;;;;
2022/12/25 09:03:35;;;;;;;3.20;2.60;;;11.40;99.90;;;;;;6126608;23;20471;-85
2022/12/25 09:06:30;;;;;;;4.10;2.40;;;11.50;99.90;;;;;;6098182;23;20951;-85
2022/12/25 09:09:39;;;;;;;4.00;2.67;;;11.50;99.90;;;;;;6100853;23;20448;-84
2022/12/25 09:12:14;;;;;;;4.37;2.10;;;11.60;99.90;;;;;;6101224;23;21106;-83
2022/12/25 09:15:03;;;;;;;5.83;3.10;;;11.70;99.90;;;;;;6104070;23;20424;-84
2022/12/25 09:18:06;;;;;;;6.03;3.47;;;11.60;99.90;;;;;;6104141;23;20468;-86
2022/12/25 09:31:02;;;;;;;4.00;2.40;;;11.60;99.90;;;;;;6119355;23;20595;-84
2022/12/25 09:36:39;;;;;;;3.97;2.60;;;11.60;99.90;;;;;;6095744;23;20535;-86
2022/12/25 09:43:48;;;;;;;3.10;2.53;;;11.80;99.90;;;;;;6078192;23;20904;-84
2022/12/25 09:47:06;;;;;;;4.17;2.40;;;11.70;99.90;;;;;;6100288;23;20463;-85
2022/12/25 09:50:19;;;;;;;6.33;2.77;;;11.70;99.90;;;;;;6100839;23;20542;-84
2022/12/25 10:04:41;;;;;;;11.30;2.53;;;11.80;99.90;;;;;;6100127;23;20521;-84
2022/12/25 10:10:44;;;;;;;6.20;2.60;;;11.80;99.90;;;;;;6121490;23;20470;-85
2022/12/25 10:13:48;;;;;;;6.53;2.60;;;11.70;99.90;;;;;;6129068;23;20447;-83
2022/12/25 10:17:04;;;;;;;;;;;;;;;;;;;;;
2022/12/25 10:20:46;;;;;;;2.37;2.20;;;11.70;99.90;;;;;;6040673;23;20402;-84
2022/12/25 11:33:12;;;;;;;3.10;2.80;;;11.40;99.90;;;;;;6117203;23;20471;-83
2022/12/25 11:39:56;;;;;;;3.47;2.80;;;11.70;99.90;;;;;;6122852;23;20804;-84
2022/12/25 11:42:57;;;;;;;3.50;3.13;;;11.70;99.90;;;;;;6120053;23;21547;-84
2022/12/25 11:45:53;;;;;;;4.13;2.97;;;11.70;99.90;;;;;;6064680;23;20404;-83
2022/12/25 11:48:57;;;;;;;;;;;;;;;;;;;;;
2022/12/25 11:52:06;;;;;;;4.13;3.23;;;11.90;99.90;;;;;;6123285;23;20487;-84
2022/12/25 11:55:37;;;;;;;3.13;2.67;;;11.90;99.90;;;;;;6101596;23;20376;-84
2022/12/25 11:58:39;;;;;;;4.10;3.13;;;12.00;99.90;;;;;;6097985;23;20419;-84
2022/12/25 12:01:39;;;;;;;4.67;3.30;;;12.00;99.90;;;;;;6100204;23;20447;-84
2022/12/25 12:04:38;;;;;;;4.43;2.80;;;11.90;99.90;;;;;;6101257;23;20506;-84
2022/12/25 12:07:36;;;;;;;4.17;3.07;;;12.00;99.90;;;;;;6099026;23;20431;-84
2022/12/25 12:10:26;;;;;;;3.20;2.90;;;11.90;99.90;;;;;;6102037;23;20448;-82
2022/12/25 12:13:36;;;;;;;4.63;3.53;;;11.90;99.90;;;;;;6082733;23;20471;-84
2022/12/25 12:16:46;;;;;;;5.13;2.87;;;11.90;99.90;;;;;;6094559;23;20432;-81
2022/12/25 12:19:33;;;;;;;4.30;3.10;;;12.20;99.90;;;;;;6091835;23;20876;-84
2022/12/25 12:22:35;;;;;;;4.60;3.50;;;12.20;99.90;;;;;;6093424;23;20463;-82
2022/12/25 12:25:50;;;;;;;4.20;3.03;;;12.20;99.90;;;;;;6093177;23;20487;-83
2022/12/25 12:28:45;;;;;;;6.17;3.30;;;12.20;99.90;;;;;;6093380;23;20420;-82
2022/12/25 12:31:34;;;;;;;5.17;3.30;;;12.20;99.90;;;;;;6102235;23;20774;-84
2022/12/25 12:34:25;;;;;;;3.60;3.30;;;12.10;99.90;;;;;;6104649;23;20412;-82
2022/12/25 12:37:42;;;;;;;3.80;3.47;;;12.20;99.90;;;;;;6095991;23;20424;-83
2022/12/25 12:40:45;;;;;;;4.27;3.40;;;12.20;99.90;;;;;;6104973;23;20419;-84
2022/12/25 12:44:17;;;;;;;5.93;4.33;;;12.40;99.90;;;;;;6093980;23;20424;-84
2022/12/25 12:47:45;;;;;;;5.73;3.97;;;12.30;99.90;;;;;;6034869;23;20446;-84
2022/12/25 12:50:46;;;;;;;5.20;3.50;;;12.40;99.90;;;;;;6035205;23;20505;-84
2022/12/25 12:53:39;;;;;;;6.20;4.10;;;12.40;99.90;;;;;;6125468;23;21296;-83
2022/12/25 12:56:24;;;;;;;8.83;3.33;;;12.30;99.90;;;;;;6101967;23;20415;-84
2022/12/25 12:59:51;;;;;;;4.13;3.20;;;12.20;99.90;;;;;;6101356;23;20392;-85
2022/12/25 13:03:27;;;;;;;;;;;;;;;;;;;;;
2022/12/25 13:07:07;;;;;;;3.47;3.17;;;12.30;99.90;;;;;;5994962;23;20424;-85
2022/12/25 13:10:27;;;;;;;4.43;3.80;;;12.50;99.90;;;;;;6073902;23;20535;-83
2022/12/25 13:13:28;;;;;;;5.80;4.40;;;12.50;99.90;;;;;;6098998;23;20519;-85
2022/12/25 13:16:35;;;;;;;7.63;3.60;;;12.50;99.90;;;;;;6078015;23;20486;-86
2022/12/25 13:19:54;;;;;;;5.27;3.93;;;12.50;99.90;;;;;;6099325;23;20447;-82
2022/12/25 13:22:52;;;;;;;3.30;3.00;;;12.40;99.90;;;;;;6037698;23;20435;-84
2022/12/25 13:26:21;;;;;;;4.83;3.97;;;12.40;99.90;;;;;;6101698;23;20680;-83
2022/12/25 13:29:05;;;;;;;4.67;3.20;;;12.40;99.90;;;;;;6082642;23;20487;-84
2022/12/25 13:32:08;;;;;;;4.97;3.60;;;12.40;99.90;;;;;;6125385;23;20420;-83
2022/12/25 13:35:33;;;;;;;4.27;3.40;;;12.50;99.90;;;;;;6105499;23;20435;-85
2022/12/25 13:39:03;;;;;;;6.60;3.20;;;12.70;99.90;;;;;;6102502;23;20439;-83
2022/12/25 13:42:15;;;;;;;;;;;;;;;;;;;;;
2022/12/25 13:45:08;;;;;;;3.67;3.33;;;12.70;99.90;;;;;;6124657;23;20463;-84
2022/12/25 13:47:46;;;;;;;4.00;3.37;;;12.70;99.90;;;;;;6101194;23;20411;-83
2022/12/25 13:50:47;;;;;;;6.77;3.73;;;12.70;99.90;;;;;;6063711;23;20451;-86
2022/12/25 13:57:23;;;;;;;3.73;3.37;;;12.70;99.90;;;;;;5997852;24;20391;-87
2022/12/25 14:07:26;;;;;;;4.83;4.20;;;13.00;99.90;;;;;;6119141;23;20631;-84
2022/12/25 14:11:03;;;;;;;3.83;3.13;;;12.90;99.90;;;;;;6083332;23;20518;-85
2022/12/25 14:13:56;;;;;;;5.20;4.23;;;12.80;99.90;;;;;;6095158;23;20499;-84
2022/12/25 14:16:37;;;;;;;5.30;3.90;;;12.90;99.90;;;;;;6069257;23;20409;-84
2022/12/25 14:20:24;;;;;;;4.50;4.10;;;12.90;99.90;;;;;;6068859;23;20405;-83
2022/12/25 14:27:02;;;;;;;4.73;4.03;;;13.00;99.90;;;;;;6044161;23;20428;-83
2022/12/25 14:30:02;;;;;;;5.63;4.43;;;13.20;99.90;;;;;;6067039;23;20999;-85
2022/12/25 14:33:06;;;;;;;3.70;3.40;;;13.00;99.90;;;;;;6051830;23;20480;-82
2022/12/25 14:35:53;;;;;;;6.30;4.13;;;13.10;99.90;;;;;;6051926;23;20415;-83
2022/12/25 14:38:34;;;;;;;5.00;4.00;;;13.10;99.90;;;;;;6067376;23;20439;-85
2022/12/25 14:43:55;;;;;;;6.50;4.57;;;13.00;99.90;;;;;;6096039;23;20431;-84
2022/12/25 14:46:40;;;;;;;7.13;4.40;;;12.90;99.90;;;;;;6073270;23;20431;-83
2022/12/25 14:49:30;;;;;;;5.57;4.87;;;13.00;99.90;;;;;;6053477;23;20416;-85
2022/12/25 14:52:20;;;;;;;5.53;5.00;;;13.10;99.90;;;;;;6074099;23;20459;-85
2022/12/25 14:58:39;;;;;;;4.33;3.80;;;13.10;99.90;;;;;;6057322;23;20395;-84
2022/12/25 15:04:07;;;;;;;4.13;3.73;;;13.20;99.90;;;;;;6098701;23;20490;-85
2022/12/25 15:07:13;;;;;;;5.03;3.83;;;13.20;99.90;;;;;;6097514;23;20401;-84
2022/12/25 15:10:23;;;;;;;5.30;4.30;;;13.20;99.90;;;;;;6074086;23;20409;-84
2022/12/25 15:13:52;;;;;;;5.00;4.50;;;13.20;99.90;;;;;;6052811;23;20405;-85
2022/12/25 15:17:06;;;;;;;5.07;4.20;;;13.20;99.90;;;;;;6050939;23;20389;-84
2022/12/25 15:19:46;;;;;;;4.70;4.27;;;13.20;99.90;;;;;;6051964;23;20414;-85
2022/12/25 15:22:35;;;;;;;3.60;3.30;;;13.30;99.90;;;;;;6058515;23;20444;-84
2022/12/25 15:25:34;;;;;;;5.80;4.13;;;13.20;99.90;;;;;;6053894;23;20398;-84
2022/12/25 15:28:46;;;;;;;5.70;4.47;;;13.30;99.90;;;;;;6046368;23;20406;-84
2022/12/25 15:31:39;;;;;;;7.40;4.70;;;13.20;99.90;;;;;;6038344;23;20453;-84
2022/12/25 15:34:41;;;;;;;5.73;4.83;;;13.20;99.90;;;;;;6048018;23;20413;-85
2022/12/25 15:37:48;;;;;;;6.37;4.77;;;13.20;99.90;;;;;;6037438;23;20461;-83
2022/12/25 15:40:45;;;;;;;6.53;4.70;;;13.30;99.90;;;;;;6048675;23;20404;-87
2022/12/25 15:51:45;;;;;;;4.33;3.40;;;13.30;99.90;;;;;;6035157;23;20445;-86
2022/12/25 16:19:10;;;;;;;5.60;4.80;;;13.50;99.90;;;;;;6137750;23;20447;-84
2022/12/25 16:58:05;;;;;;;8.03;5.10;;;13.70;99.90;;;;;;6122366;23;20466;-83
2022/12/25 17:07:33;;;;;;;;;;;;;;;;;;;;;
2022/12/25 17:10:39;;;;;;;4.83;4.37;;;13.70;99.90;;;;;;6097201;23;20467;-85
2022/12/25 17:27:35;;;;;;;5.47;4.97;;;13.80;99.90;;;;;;6129207;23;20473;-86
2022/12/25 17:37:41;;;;;;;8.47;4.90;;;14.00;99.90;;;;;;6118707;23;20459;-88
2022/12/25 17:40:54;;;;;;;7.13;4.67;;;14.10;99.90;;;;;;6012266;23;20403;-84
2022/12/25 17:43:44;;;;;;;6.13;4.40;;;14.10;99.90;;;;;;6006191;23;20419;-85
2022/12/25 17:47:06;;;;;;;6.43;4.10;;;14.20;99.90;;;;;;6006231;23;20411;-85
2022/12/25 17:54:44;;;;;;;;;;;;;;;;;;;;;
2022/12/25 18:04:19;;;;;;;8.30;5.10;;;14.10;99.90;;;;;;6135344;23;20419;-86
2022/12/25 18:07:46;;;;;;;6.20;4.23;;;14.00;99.90;;;;;;6101539;23;20435;-85
2022/12/25 18:14:40;;;;;;;6.47;4.90;;;14.00;99.90;;;;;;6126716;23;20845;-85
2022/12/25 18:28:06;;;;;;;6.47;4.90;;;14.10;99.90;;;;;;6127979;23;20695;-84
2022/12/25 18:31:45;;;;;;;6.10;3.93;;;14.00;99.90;;;;;;6126244;23;20930;-86
2022/12/25 19:00:08;;;;;;;4.20;3.80;;;13.90;99.90;;;;;;6129702;23;20454;-84
2022/12/25 19:07:11;;;;;;;3.13;2.80;;;14.00;99.90;;;;;;6008578;23;20522;-85
2022/12/25 19:16:19;;;;;;;4.23;2.73;;;14.10;99.90;;;;;;6118088;23;20474;-87
2022/12/25 19:19:49;;;;;;;3.30;3.00;;;14.00;99.90;;;;;;5999606;23;20490;-86
2022/12/25 19:57:36;;;;;;;7.43;4.03;;;14.40;99.90;;;;;;6150305;23;20478;-84
2022/12/25 20:06:44;;;;;;;;;;;;;;;;;;;;;
2022/12/25 20:10:03;;;;;;;;;;;;;;;;;;;;;
2022/12/25 20:38:32;;;;;;;3.20;2.90;;;14.10;99.90;;;;;;6125268;23;20554;-84
2022/12/25 21:30:39;;;;;;;5.37;3.47;;;14.10;99.90;;;;;;5216598;23;21756332;-85
2022/12/25 22:09:53;;;;;;;5.87;2.57;;;14.30;99.90;;;;;;6118166;23;21001;-86
2022/12/25 22:19:53;;;;;;;2.90;2.70;;;14.10;99.90;;;;;;6030426;23;20485;-85
2022/12/25 22:22:42;;;;;;;2.40;2.20;;;14.20;99.90;;;;;;6042350;23;20464;-85
2022/12/25 22:34:59;;;;;;;2.70;2.17;;;14.30;99.90;;;;;;6156373;23;20446;-86
2022/12/25 22:41:11;;;;;;;4.07;2.33;;;14.50;99.90;;;;;;6030286;23;20455;-83
2022/12/25 22:43:48;;;;;;;2.50;2.30;;;14.50;99.90;;;;;;6091924;23;20431;-85
2022/12/25 22:47:28;;;;;;;;;;;;;;;;;;;;;
2022/12/25 22:50:25;;;;;;;4.70;2.50;;;14.20;99.90;;;;;;6125535;23;20883;-85
2022/12/25 22:53:12;;;;;;;3.43;2.27;;;14.30;99.90;;;;;;6102271;23;20443;-85
2022/12/25 22:55:56;;;;;;;2.50;1.93;;;14.20;99.90;;;;;;6099248;23;20430;-85
2022/12/25 22:58:57;;;;;;;2.43;2.00;;;14.10;99.90;;;;;;6117404;23;20419;-85
2022/12/25 23:02:01;;;;;;;2.67;2.00;;;14.00;99.90;;;;;;6108928;23;20398;-85
2022/12/25 23:04:44;;;;;;;4.40;1.90;;;14.00;99.90;;;;;;6102649;23;20922;-84
2022/12/25 23:07:49;;;;;;;2.77;2.50;;;14.50;99.90;;;;;;6104358;23;20408;-86
2022/12/25 23:30:12;;;;;;;2.53;1.43;;;14.10;99.90;;;;;;6107746;23;20447;-83
2022/12/25 23:36:25;;;;;;;1.83;1.53;;;13.90;99.90;;;;;;6137007;23;20507;-83
2022/12/25 23:43:36;;;;;;;2.20;2.00;;;13.90;99.90;;;;;;6118201;23;20466;-84
2022/12/25 23:50:58;;;;;;;;;;;;;;;;;;;;;
2022/12/25 23:54:11;;;;;;;2.67;1.90;;;14.20;99.90;;;;;;6014308;23;21006;-85
2022/12/25 23:58:00;;;;;;;;;;;;;;;;;;;;;
